Flight Track Log - Related Links

Times and Time Zones

All times are in EDT time to prevent confusion due to time zone crossing. See the CTL18 flight status page for this flight to view local times or setup timezone preferences in your user account.

Time Position Orientation Groundspeed Altitude Reporting Facility
EDT Latitude Longitude Course Direction KTS MPH feet Rate Location/Type
Wed 10:57:39 PM 41.5519 -81.7319 328° Northwest 152 175 2,100  Level Cleveland Center
Wed 10:58:40 PM 41.5700 -81.7822 296° West 141 162 2,800 626 Climbing Cleveland Center
Wed 10:59:34 PM 41.5822 -81.8239 291° West 145 167 3,300 626 Climbing Cleveland Center
Wed 11:00:35 PM 41.6003 -81.8742 296° West 135 155 4,000 393 Climbing Cleveland Center
Wed 11:01:36 PM 41.6186 -81.9247 296° West 153 176 4,100 94 Climbing Cleveland Center
Wed 11:02:42 PM 41.6367 -81.9833 292° West 154 177 4,200 50 Climbing Cleveland Center
Wed 11:03:37 PM 41.6506 -82.0308 291° West 153 176 4,200 -55 Level Cleveland Center
Wed 11:04:31 PM 41.6667 -82.0731 297° West 125 144 4,100 -47 Descending Cleveland Center
Wed 11:05:44 PM 41.6828 -82.1178 296° West 97 112 4,100 47 Level Cleveland Center
Wed 11:06:39 PM 41.6950 -82.1514 296° West 138 159 4,200 52 Climbing Cleveland Center
Wed 11:07:39 PM 41.7108 -82.2047 292° West 151 174 4,200 -47 Level Cleveland Center
Wed 11:08:46 PM 41.7328 -82.2664 296° West 161 185 4,100 -47 Descending Cleveland Center
Wed 11:09:47 PM 41.7486 -82.3225 291° West 161 185 4,100  Level Cleveland Center
Wed 11:10:53 PM 41.7667 -82.3789 293° West 156 180 4,100 -39 Level Cleveland Center
Wed 11:12:21 PM 41.7925 -82.4603 293° West 153 176 4,000 -40 Descending Cleveland Center
Wed 11:13:22 PM 41.8083 -82.5136 292° West 157 181 4,000 55 Level Cleveland Center
Wed 11:14:11 PM 41.8242 -82.5558 297° West 156 180 4,100  Climbing Cleveland Center
Wed 11:15:11 PM 41.8419 -82.6067 295° West 157 181 4,000 -50 Descending Cleveland Center
Wed 11:16:12 PM 41.8789 -82.6442 323° Northwest 169 194 4,000 50 Level Cleveland Center
Wed 11:17:12 PM 41.9158 -82.6789 325° Northwest 163 188 4,100 99 Climbing Cleveland Center
Wed 11:18:13 PM 41.9547 -82.7164 324° Northwest 164 189 4,200  Climbing Cleveland Center
Wed 11:19:14 PM 41.9894 -82.7539 321° Northwest 167 192 4,100 -50 Descending Cleveland Center
Wed 11:20:14 PM 42.0283 -82.7914 324° Northwest 167 192 4,100 -45 Level Cleveland Center
Wed 11:21:27 PM 42.0797 -82.8269 333° Northwest 177 204 4,000  Descending Cleveland Center
Wed 11:22:28 PM 42.1231 -82.8508 338° Northwest 170 196 4,100 55 Climbing Cleveland Center
Wed 11:23:16 PM 42.1622 -82.8717 338° Northwest 173 199 4,100 -52 Level Cleveland Center
Wed 11:24:23 PM 42.2075 -82.8986 336° Northwest 175 201 4,000 -45 Descending Cleveland Center
Wed 11:25:30 PM 42.2611 -82.9286 338° Northwest 173 199 4,000  Level Cleveland Center
Wed 11:26:12 PM 42.2919 -82.9467 337° Northwest 177 204 4,000  Level Cleveland Center
Wed 11:27:13 PM 42.3372 -82.9736 336° Northwest 176 203 4,000 49 Level Cleveland Center
Wed 11:28:14 PM 42.3806 -83.0006 335° Northwest 168 193 4,100  Climbing Cleveland Center
Wed 11:29:14 PM 42.4131 -83.0467 314° West 163 188 4,000 -99 Descending Cleveland Center
Wed 11:30:15 PM 42.4472 -83.0961 313° West 168 193 3,900 -224 Descending Cleveland Center
Wed 11:31:28 PM 42.4878 -83.1483 316° Northwest 174 200 3,500 -358 Descending Cleveland Center
Wed 11:32:29 PM 42.5203 -83.1947 314° West 170 196 3,100 -347 Descending Cleveland Center
Wed 11:33:29 PM 42.5525 -83.2383 315° West 159 183 2,800 -283 Descending Cleveland Center
Wed 11:34:36 PM 42.5828 -83.2875 310° West 155 178 2,500 -236 Descending Cleveland Center
Wed 11:35:36 PM 42.6172 -83.3256 321° Northwest 151 174 2,300 -248 Descending Cleveland Center
Wed 11:36:37 PM 42.6475 -83.3636 317° Northwest 156 180 2,000 -295 Descending Cleveland Center
Wed 11:38:00 PM 42.6500 -83.4167 304° West  Level FlightAware Approximate
Wed 11:45:00 PM 42.6656 -83.4205 304° West  Level Estimated
Wed 11:46:00 PM 42.6656 -83.4205 304° West  Level Estimated

Login

Don't have an account? Register now (free) for customized features, flight alerts, and more!